createdAt,value
2018-10-19T00:02:41.109Z,6.70
2018-10-19T00:07:44.267Z,7.10
2018-10-19T00:12:47.474Z,7.50
2018-10-19T00:17:50.578Z,8.47
2018-10-19T00:22:53.757Z,8.07
2018-10-19T00:27:56.967Z,9.37
2018-10-19T00:33:00.193Z,9.30
2018-10-19T00:38:03.320Z,9.07
2018-10-19T00:43:06.480Z,11.07
2018-10-19T00:48:12.725Z,10.03
2018-10-19T00:53:16.207Z,9.97
2018-10-19T00:58:19.302Z,11.03
2018-10-19T01:03:22.568Z,11.67
2018-10-19T01:08:25.754Z,12.03
2018-10-19T01:13:28.892Z,11.77
2018-10-19T01:18:32.090Z,12.40
2018-10-19T01:23:35.281Z,13.23
2018-10-19T01:28:38.501Z,13.20
2018-10-19T01:33:41.675Z,16.87
2018-10-19T01:38:44.833Z,12.90
2018-10-19T01:43:47.966Z,14.53
2018-10-19T01:48:51.139Z,14.90
2018-10-19T01:53:54.302Z,14.13
2018-10-19T01:58:57.593Z,13.23
2018-10-19T02:04:02.333Z,13.53
2018-10-19T02:09:06.691Z,13.97
2018-10-19T02:14:09.806Z,16.93
2018-10-19T02:19:13.111Z,13.30
2018-10-19T02:24:16.375Z,14.10
2018-10-19T02:29:19.595Z,14.57
2018-10-19T02:34:22.916Z,14.20
2018-10-19T02:39:26.228Z,12.97
2018-10-19T02:44:29.409Z,13.07
2018-10-19T02:49:32.562Z,13.23
2018-10-19T02:54:35.706Z,13.23
2018-10-19T02:59:38.897Z,11.97
2018-10-19T03:04:42.010Z,13.20
2018-10-19T03:09:45.225Z,13.13
2018-10-19T03:14:48.377Z,13.17
2018-10-19T03:19:51.508Z,12.13
2018-10-19T03:24:54.713Z,12.90
2018-10-19T03:29:57.835Z,15.20
2018-10-19T03:35:01.062Z,12.47
2018-10-19T03:40:04.133Z,12.43
2018-10-19T03:45:07.576Z,12.43
2018-10-19T03:50:10.696Z,12.20
2018-10-19T03:55:13.852Z,12.67
2018-10-19T04:00:17.040Z,13.90
2018-10-19T04:05:21.705Z,13.50
2018-10-19T04:10:24.886Z,14.53
2018-10-19T04:15:28.084Z,16.23
2018-10-19T04:20:31.231Z,15.23
2018-10-19T04:25:34.510Z,16.13
2018-10-19T04:30:38.033Z,20.70
2018-10-19T04:35:41.202Z,17.77
2018-10-19T04:40:44.327Z,18.80
2018-10-19T04:45:47.567Z,18.20
2018-10-19T04:50:50.831Z,23.80
2018-10-19T04:55:54.011Z,24.87
2018-10-19T05:00:57.143Z,21.23
2018-10-19T05:06:00.428Z,20.60
2018-10-19T05:11:03.481Z,20.27
2018-10-19T05:16:06.742Z,20.03
2018-10-19T05:21:09.982Z,20.47
2018-10-19T05:26:13.141Z,20.13
2018-10-19T05:31:16.245Z,19.93
2018-10-19T05:36:19.470Z,21.03
2018-10-19T05:41:22.578Z,21.07
2018-10-19T05:46:25.765Z,27.00
2018-10-19T05:51:28.954Z,21.00
2018-10-19T05:56:32.146Z,22.50
2018-10-19T06:01:35.299Z,22.23
2018-10-19T06:06:38.463Z,28.20
2018-10-19T06:11:41.852Z,24.13
2018-10-19T06:16:44.950Z,24.47
2018-10-19T06:21:48.085Z,25.17
2018-10-19T06:26:51.262Z,24.33
2018-10-19T06:31:54.388Z,25.90
2018-10-19T06:36:57.574Z,24.07
2018-10-19T06:42:00.727Z,24.17
2018-10-19T06:47:03.982Z,23.30
2018-10-19T06:52:07.085Z,28.60
2018-10-19T06:57:10.285Z,24.27
2018-10-19T07:02:13.534Z,21.43
2018-10-19T07:07:16.588Z,22.13
2018-10-19T07:12:19.733Z,26.73
2018-10-19T07:17:22.930Z,23.20
2018-10-19T07:22:26.025Z,22.43
2018-10-19T07:27:29.142Z,21.03
2018-10-19T07:32:32.274Z,20.37
2018-10-19T07:37:35.566Z,20.60
2018-10-19T07:42:38.746Z,23.77
2018-10-19T07:47:41.962Z,20.33
2018-10-19T07:52:45.157Z,20.03
2018-10-19T07:57:48.389Z,20.93
2018-10-19T08:02:51.526Z,21.63
2018-10-19T08:07:54.823Z,21.80
2018-10-19T08:12:57.973Z,25.87
2018-10-19T08:18:01.133Z,21.70
2018-10-19T08:23:04.361Z,22.80
2018-10-19T08:28:07.451Z,24.27
2018-10-19T08:33:10.616Z,21.70
2018-10-19T08:38:13.811Z,23.70
2018-10-19T08:43:17.039Z,21.43
2018-10-19T08:48:20.255Z,21.90
2018-10-19T08:53:23.507Z,24.77
2018-10-19T08:58:26.693Z,21.80
2018-10-19T09:03:29.847Z,23.10
2018-10-19T09:08:32.957Z,20.87
2018-10-19T09:13:36.302Z,20.87
2018-10-19T09:18:39.690Z,21.30
2018-10-19T09:23:42.762Z,20.43
2018-10-19T09:28:45.892Z,19.13
2018-10-19T09:33:49.046Z,18.47
2018-10-19T09:38:52.277Z,18.83
2018-10-19T09:43:55.444Z,19.82
2018-10-19T09:48:58.624Z,19.65
2018-10-19T09:54:01.751Z,16.95
2018-10-19T09:59:05.543Z,18.15
2018-10-19T10:04:08.659Z,17.35
2018-10-19T10:09:13.988Z,18.80
2018-10-19T10:14:17.136Z,18.92
2018-10-19T10:19:20.299Z,17.87
2018-10-19T10:24:23.474Z,18.67
2018-10-19T10:29:26.667Z,17.05
2018-10-19T10:34:29.795Z,15.80
2018-10-19T10:39:33.026Z,17.25
2018-10-19T10:44:36.178Z,17.95
2018-10-19T10:49:39.344Z,18.27
2018-10-19T10:54:42.447Z,17.62
2018-10-19T10:59:45.627Z,16.93
2018-10-19T11:04:48.784Z,19.32
2018-10-19T11:09:52.016Z,17.85
2018-10-19T11:14:55.213Z,16.52
2018-10-19T11:19:58.426Z,17.75
2018-10-19T11:25:01.737Z,19.15
2018-10-19T11:30:05.826Z,19.12
2018-10-19T11:35:09.156Z,19.70
2018-10-19T11:40:36.887Z,17.98
2018-10-19T11:45:40.299Z,19.48
2018-10-19T11:50:43.425Z,20.08
2018-10-19T11:55:46.587Z,19.02
2018-10-19T12:00:49.768Z,20.77
2018-10-19T12:05:52.844Z,21.35
2018-10-19T12:10:56.060Z,19.82
2018-10-19T12:15:59.318Z,19.92
2018-10-19T12:21:02.777Z,17.77
2018-10-19T12:26:06.801Z,19.30
2018-10-19T12:31:09.958Z,20.85
2018-10-19T12:36:13.066Z,20.77
2018-10-19T12:41:16.314Z,17.45
2018-10-19T12:46:57.679Z,18.32
2018-10-19T12:52:00.789Z,16.67
2018-10-19T12:57:03.987Z,16.90
2018-10-19T13:02:14.245Z,18.02
2018-10-19T13:07:17.542Z,16.95
2018-10-19T13:12:20.601Z,17.40
2018-10-19T13:17:23.730Z,16.00
2018-10-19T13:22:26.933Z,17.25
2018-10-19T13:27:30.093Z,17.87
2018-10-19T13:32:33.203Z,17.67
2018-10-19T13:37:36.409Z,18.40
2018-10-19T13:42:39.610Z,18.77
2018-10-19T13:47:42.747Z,19.20
2018-10-19T13:52:45.909Z,18.42
2018-10-19T13:57:49.074Z,19.57
2018-10-19T14:02:52.206Z,18.80
2018-10-19T14:07:55.347Z,18.67
2018-10-19T14:12:58.521Z,18.77
2018-10-19T14:18:01.636Z,18.33
2018-10-19T14:23:05.220Z,18.63
2018-10-19T14:28:08.311Z,21.37
2018-10-19T14:33:11.541Z,19.17
2018-10-19T14:38:14.630Z,17.90
2018-10-19T14:43:17.791Z,21.50
2018-10-19T14:48:20.918Z,18.27
2018-10-19T14:53:24.104Z,22.77
2018-10-19T14:58:27.243Z,19.13
2018-10-19T15:03:30.348Z,20.75
2018-10-19T15:08:33.573Z,19.47
2018-10-19T15:13:36.697Z,19.07
2018-10-19T15:18:39.902Z,20.83
2018-10-19T15:23:42.968Z,20.57
2018-10-19T15:28:46.148Z,20.30
2018-10-19T15:33:49.335Z,20.30
2018-10-19T15:38:52.520Z,20.20
2018-10-19T15:43:55.657Z,18.57
2018-10-19T15:48:58.870Z,19.47
2018-10-19T15:54:02.685Z,19.57
2018-10-19T15:59:05.915Z,22.98
2018-10-19T16:04:09.026Z,18.90
2018-10-19T16:09:13.475Z,20.30
2018-10-19T16:14:16.619Z,19.87
2018-10-19T16:19:19.782Z,19.43
2018-10-19T16:24:22.964Z,19.83
2018-10-19T16:29:26.141Z,21.37
2018-10-19T16:34:29.455Z,19.47
2018-10-19T16:39:32.690Z,18.60
2018-10-19T16:44:35.847Z,19.67
2018-10-19T16:49:39.001Z,20.83
2018-10-19T16:54:42.197Z,19.33
2018-10-19T16:59:45.396Z,20.63
2018-10-19T17:04:48.644Z,18.30
2018-10-19T17:09:51.691Z,18.13
2018-10-19T17:14:54.845Z,17.33
2018-10-19T17:19:58.009Z,17.60
2018-10-19T17:25:01.166Z,16.87
2018-10-19T17:30:05.952Z,16.53
2018-10-19T17:35:09.830Z,18.17
2018-10-19T17:40:12.914Z,19.07
2018-10-19T17:45:16.139Z,18.47
2018-10-19T17:50:19.209Z,18.53
2018-10-19T17:55:22.350Z,20.27
2018-10-19T18:00:25.469Z,24.70
2018-10-19T18:05:28.603Z,28.73
2018-10-19T18:10:31.784Z,23.20
2018-10-19T18:15:35.018Z,30.33
2018-10-19T18:20:38.171Z,27.57
2018-10-19T18:25:41.370Z,25.77
2018-10-19T18:30:44.573Z,22.70
2018-10-19T18:35:47.690Z,21.70
2018-10-19T18:40:50.904Z,21.43
2018-10-19T18:45:54.034Z,24.00
2018-10-19T18:50:57.193Z,25.87
2018-10-19T18:56:00.448Z,23.97
2018-10-19T19:01:03.558Z,25.00
2018-10-19T19:06:06.750Z,23.60
2018-10-19T19:11:09.964Z,24.77
2018-10-19T19:16:29.557Z,22.33
2018-10-19T19:21:32.748Z,22.23
2018-10-19T19:26:35.845Z,21.53
2018-10-19T19:31:39.009Z,21.13
2018-10-19T19:36:42.145Z,20.63
2018-10-19T19:42:03.197Z,23.00
2018-10-19T19:47:06.328Z,23.50
2018-10-19T19:52:09.481Z,27.35
2018-10-19T19:57:12.659Z,24.47
2018-10-19T20:02:15.870Z,24.57
2018-10-19T20:07:18.997Z,23.80
2018-10-19T20:12:22.294Z,23.70
2018-10-19T20:17:25.568Z,22.50
2018-10-19T20:22:28.687Z,20.93
2018-10-19T20:27:31.877Z,21.73
2018-10-19T20:32:35.026Z,23.98
2018-10-19T20:37:38.135Z,21.60
2018-10-19T20:42:41.295Z,21.70
2018-10-19T20:47:44.438Z,20.63
2018-10-19T20:52:47.610Z,21.07
2018-10-19T20:57:50.718Z,21.47
2018-10-19T21:02:53.917Z,20.17
2018-10-19T21:07:57.101Z,21.53
2018-10-19T21:13:00.301Z,20.27
2018-10-19T21:18:03.429Z,22.40
2018-10-19T21:23:06.609Z,22.10
2018-10-19T21:28:09.845Z,21.10
2018-10-19T21:33:13.053Z,22.57
2018-10-19T21:38:16.279Z,22.17
2018-10-19T21:43:19.384Z,21.10
2018-10-19T21:48:22.524Z,23.00
2018-10-19T21:53:25.723Z,19.60
2018-10-19T21:58:28.882Z,22.67
2018-10-19T22:03:32.080Z,24.07
2018-10-19T22:08:35.347Z,23.97
2018-10-19T22:13:38.437Z,22.70
2018-10-19T22:18:41.602Z,21.90
2018-10-19T22:23:44.763Z,22.60
2018-10-19T22:28:47.925Z,22.13
2018-10-19T22:33:51.070Z,28.77
2018-10-19T22:38:54.247Z,25.33
2018-10-19T22:43:57.455Z,23.27
2018-10-19T22:49:00.524Z,21.70
2018-10-19T22:54:03.685Z,21.23
2018-10-19T22:59:06.879Z,21.10
2018-10-19T23:04:10.001Z,22.20
2018-10-19T23:09:13.173Z,23.40
2018-10-19T23:14:16.313Z,23.77
2018-10-19T23:19:19.449Z,23.67
2018-10-19T23:24:23.593Z,22.57
2018-10-19T23:29:25.809Z,21.03
2018-10-19T23:34:28.914Z,19.93
2018-10-19T23:39:32.079Z,20.23
2018-10-19T23:44:35.249Z,20.77
2018-10-19T23:49:38.409Z,20.97
2018-10-19T23:54:41.603Z,23.87
2018-10-19T23:59:44.853Z,20.00
